sensor_id;sensor_type;location;lat;lon;timestamp;pressure;altitude;pressure_sealevel;temperature;humidity
70930;BME280;58588;48.102;19.682;2023-09-08T00:02:31;100164.91;;;17.21;100.00
70930;BME280;58588;48.102;19.682;2023-09-08T00:05:33;100170.59;;;17.00;100.00
70930;BME280;58588;48.102;19.682;2023-09-08T00:08:35;100172.50;;;17.06;100.00
70930;BME280;58588;48.102;19.682;2023-09-08T00:11:38;100173.75;;;17.10;100.00
70930;BME280;58588;48.102;19.682;2023-09-08T00:14:40;100165.19;;;16.80;100.00
70930;BME280;58588;48.102;19.682;2023-09-08T00:17:42;100170.19;;;16.90;100.00
70930;BME280;58588;48.102;19.682;2023-09-08T00:20:44;100159.91;;;16.85;100.00
70930;BME280;58588;48.102;19.682;2023-09-08T00:23:45;100169.53;;;17.07;100.00
70930;BME280;58588;48.102;19.682;2023-09-08T00:26:49;100159.91;;;17.11;100.00
70930;BME280;58588;48.102;19.682;2023-09-08T00:29:50;100159.66;;;17.20;100.00
70930;BME280;58588;48.102;19.682;2023-09-08T00:32:52;100153.16;;;17.34;100.00
70930;BME280;58588;48.102;19.682;2023-09-08T00:35:54;100144.81;;;17.22;100.00
70930;BME280;58588;48.102;19.682;2023-09-08T00:38:57;100158.44;;;16.96;100.00
70930;BME280;58588;48.102;19.682;2023-09-08T00:42:01;100158.84;;;17.12;100.00
70930;BME280;58588;48.102;19.682;2023-09-08T00:45:03;100154.66;;;17.23;100.00
70930;BME280;58588;48.102;19.682;2023-09-08T00:48:06;100157.78;;;17.20;100.00
70930;BME280;58588;48.102;19.682;2023-09-08T00:51:08;100149.81;;;17.19;100.00
70930;BME280;58588;48.102;19.682;2023-09-08T00:54:10;100154.44;;;17.25;100.00
70930;BME280;58588;48.102;19.682;2023-09-08T00:57:14;100154.44;;;17.18;100.00
70930;BME280;58588;48.102;19.682;2023-09-08T01:00:16;100145.84;;;17.08;100.00
70930;BME280;58588;48.102;19.682;2023-09-08T01:03:18;100137.47;;;17.16;100.00
70930;BME280;58588;48.102;19.682;2023-09-08T01:06:20;100145.66;;;16.96;100.00
70930;BME280;58588;48.102;19.682;2023-09-08T01:09:24;100148.59;;;16.95;100.00
70930;BME280;58588;48.102;19.682;2023-09-08T01:12:27;100138.13;;;17.05;100.00
70930;BME280;58588;48.102;19.682;2023-09-08T01:15:29;100133.75;;;16.77;100.00
70930;BME280;58588;48.102;19.682;2023-09-08T01:18:31;100137.94;;;16.87;100.00
70930;BME280;58588;48.102;19.682;2023-09-08T01:25:23;100135.22;;;16.87;100.00
70930;BME280;58588;48.102;19.682;2023-09-08T01:28:26;100131.66;;;16.73;100.00
70930;BME280;58588;48.102;19.682;2023-09-08T01:31:28;100127.47;;;16.77;100.00
70930;BME280;58588;48.102;19.682;2023-09-08T01:34:30;100130.81;;;16.79;100.00
70930;BME280;58588;48.102;19.682;2023-09-08T01:37:32;100132.88;;;16.64;100.00
70930;BME280;58588;48.102;19.682;2023-09-08T01:40:35;100132.47;;;16.60;99.19
70930;BME280;58588;48.102;19.682;2023-09-08T01:43:37;100129.75;;;16.60;99.85
70930;BME280;58588;48.102;19.682;2023-09-08T01:46:39;100137.91;;;16.47;100.00
70930;BME280;58588;48.102;19.682;2023-09-08T01:49:41;100132.25;;;16.42;100.00
70930;BME280;58588;48.102;19.682;2023-09-08T01:52:43;100139.34;;;16.23;100.00
70930;BME280;58588;48.102;19.682;2023-09-08T01:55:46;100139.78;;;16.26;100.00
70930;BME280;58588;48.102;19.682;2023-09-08T01:58:48;100140.41;;;16.22;100.00
70930;BME280;58588;48.102;19.682;2023-09-08T02:01:50;100136.63;;;16.23;100.00
70930;BME280;58588;48.102;19.682;2023-09-08T02:04:52;100149.34;;;16.02;100.00
70930;BME280;58588;48.102;19.682;2023-09-08T02:07:54;100151.22;;;15.95;100.00
70930;BME280;58588;48.102;19.682;2023-09-08T02:11:00;100143.47;;;15.99;100.00
70930;BME280;58588;48.102;19.682;2023-09-08T02:14:02;100149.28;;;15.89;100.00
70930;BME280;58588;48.102;19.682;2023-09-08T02:17:04;100136.97;;;15.93;100.00
70930;BME280;58588;48.102;19.682;2023-09-08T02:20:08;100146.81;;;15.94;100.00
70930;BME280;58588;48.102;19.682;2023-09-08T02:23:12;100149.94;;;15.85;100.00
70930;BME280;58588;48.102;19.682;2023-09-08T02:26:16;100149.69;;;15.79;100.00
70930;BME280;58588;48.102;19.682;2023-09-08T02:29:18;100150.75;;;15.78;100.00
70930;BME280;58588;48.102;19.682;2023-09-08T02:32:20;100151.22;;;15.95;100.00
70930;BME280;58588;48.102;19.682;2023-09-08T02:35:23;100146.19;;;15.99;100.00
70930;BME280;58588;48.102;19.682;2023-09-08T02:38:25;100150.59;;;16.00;100.00
70930;BME280;58588;48.102;19.682;2023-09-08T02:41:28;100153.34;;;16.13;100.00
70930;BME280;58588;48.102;19.682;2023-09-08T02:44:32;100148.78;;;16.33;100.00
70930;BME280;58588;48.102;19.682;2023-09-08T02:47:33;100154.63;;;16.37;100.00
70930;BME280;58588;48.102;19.682;2023-09-08T02:50:35;100146.91;;;16.41;100.00
70930;BME280;58588;48.102;19.682;2023-09-08T02:53:37;100142.50;;;16.40;100.00
70930;BME280;58588;48.102;19.682;2023-09-08T02:56:40;100147.72;;;16.35;100.00
70930;BME280;58588;48.102;19.682;2023-09-08T02:59:42;100142.44;;;16.13;100.00
70930;BME280;58588;48.102;19.682;2023-09-08T03:02:44;100142.84;;;15.97;100.00
70930;BME280;58588;48.102;19.682;2023-09-08T03:05:46;100135.69;;;15.83;100.00
70930;BME280;58588;48.102;19.682;2023-09-08T03:08:48;100140.69;;;15.72;100.00
70930;BME280;58588;48.102;19.682;2023-09-08T03:11:51;100146.63;;;15.48;100.00
70930;BME280;58588;48.102;19.682;2023-09-08T03:14:54;100138.13;;;15.64;100.00
70930;BME280;58588;48.102;19.682;2023-09-08T03:17:59;100136.63;;;15.62;100.00
70930;BME280;58588;48.102;19.682;2023-09-08T03:21:01;100135.44;;;15.71;100.00
70930;BME280;58588;48.102;19.682;2023-09-08T03:24:09;100141.31;;;15.74;100.00
70930;BME280;58588;48.102;19.682;2023-09-08T03:27:12;100135.50;;;15.84;100.00
70930;BME280;58588;48.102;19.682;2023-09-08T03:30:14;100128.34;;;15.76;100.00
70930;BME280;58588;48.102;19.682;2023-09-08T03:33:16;100135.50;;;15.43;100.00
70930;BME280;58588;48.102;19.682;2023-09-08T03:36:18;100138.78;;;15.66;100.00
70930;BME280;58588;48.102;19.682;2023-09-08T03:39:20;100138.56;;;15.68;100.00
70930;BME280;58588;48.102;19.682;2023-09-08T03:42:25;100141.75;;;15.78;100.00
70930;BME280;58588;48.102;19.682;2023-09-08T03:45:27;100140.66;;;15.66;100.00
70930;BME280;58588;48.102;19.682;2023-09-08T03:48:31;100136.84;;;15.60;100.00
70930;BME280;58588;48.102;19.682;2023-09-08T03:51:33;100139.63;;;15.67;100.00
70930;BME280;58588;48.102;19.682;2023-09-08T03:54:35;100135.41;;;15.64;100.00
70930;BME280;58588;48.102;19.682;2023-09-08T03:57:39;100132.75;;;15.77;100.00
70930;BME280;58588;48.102;19.682;2023-09-08T04:00:41;100131.03;;;15.70;100.00
70930;BME280;58588;48.102;19.682;2023-09-08T04:03:43;100134.19;;;15.67;100.00
70930;BME280;58588;48.102;19.682;2023-09-08T04:06:45;100134.31;;;15.59;100.00
70930;BME280;58588;48.102;19.682;2023-09-08T04:09:48;100137.19;;;15.44;100.00
70930;BME280;58588;48.102;19.682;2023-09-08T04:12:51;100140.34;;;15.47;100.00
70930;BME280;58588;48.102;19.682;2023-09-08T04:15:54;100129.97;;;15.64;100.00
70930;BME280;58588;48.102;19.682;2023-09-08T04:18:56;100134.81;;;15.69;100.00
70930;BME280;58588;48.102;19.682;2023-09-08T04:21:58;100144.31;;;15.51;100.00
70930;BME280;58588;48.102;19.682;2023-09-08T04:25:00;100149.53;;;15.53;100.00
70930;BME280;58588;48.102;19.682;2023-09-08T04:28:04;100146.66;;;15.61;100.00
70930;BME280;58588;48.102;19.682;2023-09-08T04:31:06;100145.88;;;15.67;100.00
70930;BME280;58588;48.102;19.682;2023-09-08T04:34:08;100147.91;;;15.59;100.00
70930;BME280;58588;48.102;19.682;2023-09-08T04:37:10;100147.47;;;15.55;100.00
70930;BME280;58588;48.102;19.682;2023-09-08T04:40:13;100143.13;;;15.61;100.00
70930;BME280;58588;48.102;19.682;2023-09-08T04:43:17;100147.03;;;15.51;100.00
70930;BME280;58588;48.102;19.682;2023-09-08T04:46:19;100146.28;;;15.64;100.00
70930;BME280;58588;48.102;19.682;2023-09-08T04:49:21;100153.59;;;15.64;100.00
70930;BME280;58588;48.102;19.682;2023-09-08T04:52:23;100155.41;;;15.57;100.00
70930;BME280;58588;48.102;19.682;2023-09-08T04:55:26;100160.47;;;15.60;100.00
70930;BME280;58588;48.102;19.682;2023-09-08T04:58:29;100158.66;;;15.73;100.00
70930;BME280;58588;48.102;19.682;2023-09-08T05:01:31;100169.50;;;15.67;100.00
70930;BME280;58588;48.102;19.682;2023-09-08T05:04:33;100167.84;;;15.66;100.00
70930;BME280;58588;48.102;19.682;2023-09-08T05:07:35;100171.00;;;15.76;100.00
70930;BME280;58588;48.102;19.682;2023-09-08T05:10:38;100170.84;;;15.84;100.00
70930;BME280;58588;48.102;19.682;2023-09-08T05:13:41;100164.66;;;16.17;100.00
70930;BME280;58588;48.102;19.682;2023-09-08T05:16:43;100164.69;;;16.37;100.00
70930;BME280;58588;48.102;19.682;2023-09-08T05:19:47;100168.44;;;16.29;100.00
70930;BME280;58588;48.102;19.682;2023-09-08T05:22:49;100171.22;;;16.55;100.00
70930;BME280;58588;48.102;19.682;2023-09-08T05:25:51;100178.50;;;16.42;100.00
70930;BME280;58588;48.102;19.682;2023-09-08T05:28:55;100170.56;;;16.67;100.00
70930;BME280;58588;48.102;19.682;2023-09-08T05:31:57;100173.13;;;16.75;100.00
70930;BME280;58588;48.102;19.682;2023-09-08T05:34:59;100182.78;;;16.97;100.00
70930;BME280;58588;48.102;19.682;2023-09-08T05:38:01;100185.69;;;17.02;100.00
70930;BME280;58588;48.102;19.682;2023-09-08T05:41:03;100182.28;;;17.27;100.00
70930;BME280;58588;48.102;19.682;2023-09-08T05:44:07;100185.00;;;17.40;100.00
70930;BME280;58588;48.102;19.682;2023-09-08T05:47:09;100187.09;;;17.38;100.00
70930;BME280;58588;48.102;19.682;2023-09-08T05:50:11;100187.91;;;17.52;100.00
70930;BME280;58588;48.102;19.682;2023-09-08T05:53:13;100186.19;;;17.71;100.00
70930;BME280;58588;48.102;19.682;2023-09-08T05:56:15;100191.59;;;17.84;100.00
70930;BME280;58588;48.102;19.682;2023-09-08T05:59:18;100184.19;;;17.98;100.00
70930;BME280;58588;48.102;19.682;2023-09-08T06:02:20;100186.84;;;18.49;100.00
70930;BME280;58588;48.102;19.682;2023-09-08T06:05:23;100177.13;;;18.22;100.00
70930;BME280;58588;48.102;19.682;2023-09-08T06:08:24;100181.44;;;18.42;100.00
70930;BME280;58588;48.102;19.682;2023-09-08T06:11:26;100173.94;;;18.31;100.00
70930;BME280;58588;48.102;19.682;2023-09-08T06:14:30;100182.31;;;18.68;100.00
70930;BME280;58588;48.102;19.682;2023-09-08T06:17:32;100171.81;;;18.71;100.00
70930;BME280;58588;48.102;19.682;2023-09-08T06:20:34;100178.69;;;18.74;100.00
70930;BME280;58588;48.102;19.682;2023-09-08T06:23:36;100173.69;;;18.96;100.00
70930;BME280;58588;48.102;19.682;2023-09-08T06:26:38;100184.38;;;19.22;100.00
70930;BME280;58588;48.102;19.682;2023-09-08T06:29:41;100165.47;;;19.58;100.00
70930;BME280;58588;48.102;19.682;2023-09-08T06:32:44;100178.44;;;19.69;100.00
70930;BME280;58588;48.102;19.682;2023-09-08T06:35:46;100176.84;;;19.80;100.00
70930;BME280;58588;48.102;19.682;2023-09-08T06:38:48;100176.34;;;19.83;100.00
70930;BME280;58588;48.102;19.682;2023-09-08T06:41:52;100177.66;;;20.28;100.00
70930;BME280;58588;48.102;19.682;2023-09-08T06:44:55;100175.78;;;20.41;100.00
70930;BME280;58588;48.102;19.682;2023-09-08T06:47:57;100176.31;;;20.49;100.00
70930;BME280;58588;48.102;19.682;2023-09-08T06:51:00;100171.47;;;20.87;100.00
70930;BME280;58588;48.102;19.682;2023-09-08T06:54:02;100168.88;;;21.15;100.00
70930;BME280;58588;48.102;19.682;2023-09-08T06:57:04;100172.13;;;21.24;100.00
70930;BME280;58588;48.102;19.682;2023-09-08T07:00:09;100171.38;;;21.52;100.00
70930;BME280;58588;48.102;19.682;2023-09-08T07:03:12;100169.13;;;21.60;100.00
70930;BME280;58588;48.102;19.682;2023-09-08T07:06:15;100163.38;;;21.62;100.00
70930;BME280;58588;48.102;19.682;2023-09-08T07:09:17;100163.13;;;21.63;100.00
70930;BME280;58588;48.102;19.682;2023-09-08T07:12:19;100169.09;;;22.01;98.93
70930;BME280;58588;48.102;19.682;2023-09-08T07:15:23;100157.22;;;22.24;99.58
70930;BME280;58588;48.102;19.682;2023-09-08T07:18:25;100162.72;;;22.24;100.00
70930;BME280;58588;48.102;19.682;2023-09-08T07:21:27;100165.28;;;22.59;100.00
70930;BME280;58588;48.102;19.682;2023-09-08T07:24:29;100164.84;;;22.67;100.00
70930;BME280;58588;48.102;19.682;2023-09-08T07:27:31;100150.28;;;22.83;98.35
70930;BME280;58588;48.102;19.682;2023-09-08T07:30:34;100159.88;;;23.14;99.44
70930;BME280;58588;48.102;19.682;2023-09-08T07:33:36;100154.88;;;23.50;98.39
70930;BME280;58588;48.102;19.682;2023-09-08T07:36:38;100154.59;;;23.90;96.02
70930;BME280;58588;48.102;19.682;2023-09-08T07:39:40;100160.44;;;23.94;96.62
70930;BME280;58588;48.102;19.682;2023-09-08T07:42:42;100157.78;;;24.04;92.46
70930;BME280;58588;48.102;19.682;2023-09-08T07:45:45;100156.44;;;24.07;93.31
70930;BME280;58588;48.102;19.682;2023-09-08T07:48:48;100149.16;;;24.22;92.52
70930;BME280;58588;48.102;19.682;2023-09-08T07:51:50;100152.13;;;24.38;90.27
70930;BME280;58588;48.102;19.682;2023-09-08T07:54:52;100144.25;;;24.51;90.09
70930;BME280;58588;48.102;19.682;2023-09-08T07:57:54;100143.81;;;24.97;90.50
70930;BME280;58588;48.102;19.682;2023-09-08T08:00:59;100140.78;;;25.41;86.76
70930;BME280;58588;48.102;19.682;2023-09-08T08:04:01;100141.09;;;25.44;85.37
70930;BME280;58588;48.102;19.682;2023-09-08T08:07:04;100143.69;;;25.71;85.21
70930;BME280;58588;48.102;19.682;2023-09-08T08:10:07;100140.00;;;26.18;82.15
70930;BME280;58588;48.102;19.682;2023-09-08T08:13:10;100148.25;;;25.93;82.40
70930;BME280;58588;48.102;19.682;2023-09-08T08:16:13;100140.56;;;26.10;83.55
70930;BME280;58588;48.102;19.682;2023-09-08T08:19:15;100137.34;;;26.59;82.65
70930;BME280;58588;48.102;19.682;2023-09-08T08:22:17;100124.84;;;26.87;81.96
70930;BME280;58588;48.102;19.682;2023-09-08T08:25:19;100134.81;;;27.18;80.86
70930;BME280;58588;48.102;19.682;2023-09-08T08:28:21;100131.00;;;27.89;76.70
70930;BME280;58588;48.102;19.682;2023-09-08T08:31:25;100128.59;;;27.72;75.72
70930;BME280;58588;48.102;19.682;2023-09-08T08:34:27;100135.53;;;27.60;71.23
70930;BME280;58588;48.102;19.682;2023-09-08T08:37:29;100132.38;;;27.87;72.45
70930;BME280;58588;48.102;19.682;2023-09-08T08:40:31;100137.44;;;27.64;68.97
70930;BME280;58588;48.102;19.682;2023-09-08T08:43:34;100126.53;;;28.43;72.83
70930;BME280;58588;48.102;19.682;2023-09-08T08:46:39;100121.94;;;28.62;74.41
70930;BME280;58588;48.102;19.682;2023-09-08T08:49:43;100127.31;;;29.41;68.94
70930;BME280;58588;48.102;19.682;2023-09-08T08:52:47;100121.91;;;29.25;72.03
70930;BME280;58588;48.102;19.682;2023-09-08T08:55:50;100124.00;;;29.63;64.31
70930;BME280;58588;48.102;19.682;2023-09-08T08:58:55;100122.81;;;29.69;66.07
70930;BME280;58588;48.102;19.682;2023-09-08T09:02:02;100124.94;;;30.20;65.47
70930;BME280;58588;48.102;19.682;2023-09-08T09:05:05;100120.31;;;29.19;64.62
70930;BME280;58588;48.102;19.682;2023-09-08T09:08:09;100112.47;;;29.74;63.38
70930;BME280;58588;48.102;19.682;2023-09-08T09:11:12;100113.00;;;29.76;62.82
70930;BME280;58588;48.102;19.682;2023-09-08T09:14:14;100108.34;;;29.72;62.68
70930;BME280;58588;48.102;19.682;2023-09-08T09:17:19;100108.31;;;30.33;60.41
70930;BME280;58588;48.102;19.682;2023-09-08T09:20:22;100119.81;;;30.27;60.61
70930;BME280;58588;48.102;19.682;2023-09-08T09:23:28;100115.38;;;30.96;60.20
70930;BME280;58588;48.102;19.682;2023-09-08T09:26:30;100107.53;;;30.98;58.55
70930;BME280;58588;48.102;19.682;2023-09-08T09:29:33;100115.69;;;31.08;59.32
70930;BME280;58588;48.102;19.682;2023-09-08T09:32:36;100109.88;;;31.51;56.48
70930;BME280;58588;48.102;19.682;2023-09-08T09:35:42;100110.31;;;30.98;54.40
70930;BME280;58588;48.102;19.682;2023-09-08T09:38:44;100104.19;;;31.29;55.73
70930;BME280;58588;48.102;19.682;2023-09-08T09:41:47;100109.91;;;31.05;55.03
70930;BME280;58588;48.102;19.682;2023-09-08T09:44:49;100110.28;;;31.86;55.05
70930;BME280;58588;48.102;19.682;2023-09-08T09:47:53;100105.41;;;31.91;52.94
70930;BME280;58588;48.102;19.682;2023-09-08T09:50:55;100102.59;;;31.78;53.69
70930;BME280;58588;48.102;19.682;2023-09-08T09:53:56;100100.97;;;31.63;52.92
70930;BME280;58588;48.102;19.682;2023-09-08T09:57:00;100099.66;;;31.47;54.19
70930;BME280;58588;48.102;19.682;2023-09-08T10:00:04;100098.09;;;31.68;50.95
70930;BME280;58588;48.102;19.682;2023-09-08T10:03:10;100088.38;;;31.24;53.31
70930;BME280;58588;48.102;19.682;2023-09-08T10:06:12;100092.72;;;31.85;52.49
70930;BME280;58588;48.102;19.682;2023-09-08T10:09:16;100098.59;;;32.34;49.90
70930;BME280;58588;48.102;19.682;2023-09-08T10:12:20;100095.88;;;33.18;51.04
70930;BME280;58588;48.102;19.682;2023-09-08T10:15:23;100088.25;;;33.41;50.64
70930;BME280;58588;48.102;19.682;2023-09-08T10:18:26;100092.56;;;33.16;51.05
70930;BME280;58588;48.102;19.682;2023-09-08T10:21:30;100085.56;;;32.96;48.29
70930;BME280;58588;48.102;19.682;2023-09-08T10:24:34;100089.00;;;33.33;50.47
70930;BME280;58588;48.102;19.682;2023-09-08T10:27:38;100085.28;;;33.46;47.63
70930;BME280;58588;48.102;19.682;2023-09-08T10:30:41;100081.44;;;33.34;48.60
70930;BME280;58588;48.102;19.682;2023-09-08T10:33:45;100087.16;;;33.68;46.63
70930;BME280;58588;48.102;19.682;2023-09-08T10:36:47;100087.34;;;33.80;46.87
70930;BME280;58588;48.102;19.682;2023-09-08T10:39:49;100081.50;;;34.08;45.70
70930;BME280;58588;48.102;19.682;2023-09-08T10:43:06;100088.25;;;34.59;46.90
70930;BME280;58588;48.102;19.682;2023-09-08T10:46:08;100078.88;;;34.46;46.34
70930;BME280;58588;48.102;19.682;2023-09-08T10:49:12;100080.50;;;34.65;47.14
70930;BME280;58588;48.102;19.682;2023-09-08T10:52:14;100080.19;;;34.31;46.53
70930;BME280;58588;48.102;19.682;2023-09-08T10:55:17;100071.44;;;34.24;43.57
70930;BME280;58588;48.102;19.682;2023-09-08T10:58:37;100076.88;;;34.38;46.11
70930;BME280;58588;48.102;19.682;2023-09-08T11:01:43;100070.97;;;34.31;43.71
70930;BME280;58588;48.102;19.682;2023-09-08T11:04:46;100068.94;;;34.66;44.11
70930;BME280;58588;48.102;19.682;2023-09-08T11:07:48;100071.63;;;34.28;43.63
70930;BME280;58588;48.102;19.682;2023-09-08T11:10:52;100061.34;;;33.80;46.28
70930;BME280;58588;48.102;19.682;2023-09-08T11:13:54;100056.94;;;34.57;45.20
70930;BME280;58588;48.102;19.682;2023-09-08T11:16:58;100059.28;;;34.46;45.12
70930;BME280;58588;48.102;19.682;2023-09-08T11:20:06;100052.84;;;34.46;47.29
70930;BME280;58588;48.102;19.682;2023-09-08T11:23:09;100058.56;;;34.75;41.67
70930;BME280;58588;48.102;19.682;2023-09-08T11:26:12;100053.06;;;34.96;47.75
70930;BME280;58588;48.102;19.682;2023-09-08T11:29:14;100056.78;;;35.18;45.89
70930;BME280;58588;48.102;19.682;2023-09-08T11:32:16;100052.06;;;35.39;43.12
70930;BME280;58588;48.102;19.682;2023-09-08T11:35:20;100052.03;;;35.09;43.94
70930;BME280;58588;48.102;19.682;2023-09-08T11:38:25;100051.63;;;35.28;44.69
70930;BME280;58588;48.102;19.682;2023-09-08T11:41:27;100048.09;;;35.99;45.16
70930;BME280;58588;48.102;19.682;2023-09-08T11:44:30;100050.00;;;36.07;43.58
70930;BME280;58588;48.102;19.682;2023-09-08T11:47:31;100048.00;;;35.87;43.67
70930;BME280;58588;48.102;19.682;2023-09-08T11:50:35;100034.34;;;35.18;41.35
70930;BME280;58588;48.102;19.682;2023-09-08T11:53:37;100039.97;;;35.77;44.16
70930;BME280;58588;48.102;19.682;2023-09-08T11:56:40;100032.47;;;35.60;40.80
70930;BME280;58588;48.102;19.682;2023-09-08T11:59:43;100028.50;;;35.31;41.75
70930;BME280;58588;48.102;19.682;2023-09-08T12:02:46;100033.56;;;35.67;41.35
70930;BME280;58588;48.102;19.682;2023-09-08T12:05:52;100022.09;;;35.60;42.60
70930;BME280;58588;48.102;19.682;2023-09-08T12:08:55;100021.03;;;35.44;42.28
70930;BME280;58588;48.102;19.682;2023-09-08T12:12:02;100024.56;;;34.94;43.39
70930;BME280;58588;48.102;19.682;2023-09-08T12:15:05;100023.41;;;35.33;42.01
70930;BME280;58588;48.102;19.682;2023-09-08T12:18:08;100016.03;;;35.50;44.34
70930;BME280;58588;48.102;19.682;2023-09-08T12:21:11;100003.75;;;35.04;44.53
70930;BME280;58588;48.102;19.682;2023-09-08T12:24:13;100009.75;;;34.85;45.50
70930;BME280;58588;48.102;19.682;2023-09-08T12:27:16;99997.66;;;34.29;45.65
70930;BME280;58588;48.102;19.682;2023-09-08T12:30:19;99996.91;;;35.22;44.80
70930;BME280;58588;48.102;19.682;2023-09-08T12:33:21;99998.28;;;35.37;42.59
70930;BME280;58588;48.102;19.682;2023-09-08T12:36:24;99997.41;;;35.75;41.25
70930;BME280;58588;48.102;19.682;2023-09-08T12:39:26;99994.88;;;35.82;42.44
70930;BME280;58588;48.102;19.682;2023-09-08T12:42:28;99991.44;;;36.18;44.29
70930;BME280;58588;48.102;19.682;2023-09-08T12:45:31;99984.91;;;36.59;45.29
70930;BME280;58588;48.102;19.682;2023-09-08T12:48:33;99983.97;;;36.80;41.45
70930;BME280;58588;48.102;19.682;2023-09-08T12:51:37;99985.06;;;37.24;40.39
70930;BME280;58588;48.102;19.682;2023-09-08T12:54:39;99986.19;;;36.74;43.26
70930;BME280;58588;48.102;19.682;2023-09-08T12:57:41;99977.34;;;37.21;40.14
70930;BME280;58588;48.102;19.682;2023-09-08T13:00:44;99978.75;;;37.15;38.84
70930;BME280;58588;48.102;19.682;2023-09-08T13:03:46;99969.72;;;37.21;39.83
70930;BME280;58588;48.102;19.682;2023-09-08T13:06:49;99960.06;;;36.61;42.98
70930;BME280;58588;48.102;19.682;2023-09-08T13:09:51;99963.22;;;36.48;44.21
70930;BME280;58588;48.102;19.682;2023-09-08T13:12:53;99955.25;;;36.16;42.78
70930;BME280;58588;48.102;19.682;2023-09-08T13:15:56;99965.59;;;35.41;44.02
70930;BME280;58588;48.102;19.682;2023-09-08T13:18:57;99954.75;;;36.35;39.35
70930;BME280;58588;48.102;19.682;2023-09-08T13:22:01;99949.44;;;36.34;41.57
70930;BME280;58588;48.102;19.682;2023-09-08T13:25:03;99954.81;;;37.33;38.08
70930;BME280;58588;48.102;19.682;2023-09-08T13:28:06;99952.59;;;36.78;41.80
70930;BME280;58588;48.102;19.682;2023-09-08T13:31:07;99946.44;;;35.22;42.99
70930;BME280;58588;48.102;19.682;2023-09-08T13:34:09;99951.88;;;36.11;43.00
70930;BME280;58588;48.102;19.682;2023-09-08T13:37:13;99950.47;;;36.50;40.01
70930;BME280;58588;48.102;19.682;2023-09-08T13:40:15;99947.59;;;37.08;39.38
70930;BME280;58588;48.102;19.682;2023-09-08T13:43:17;99944.88;;;37.23;42.03
70930;BME280;58588;48.102;19.682;2023-09-08T13:46:19;99944.63;;;37.29;38.68
70930;BME280;58588;48.102;19.682;2023-09-08T13:49:21;99947.34;;;37.25;36.17
70930;BME280;58588;48.102;19.682;2023-09-08T13:52:25;99940.91;;;37.37;34.88
70930;BME280;58588;48.102;19.682;2023-09-08T13:55:27;99935.84;;;37.42;39.14
70930;BME280;58588;48.102;19.682;2023-09-08T13:58:28;99928.81;;;37.12;39.39
70930;BME280;58588;48.102;19.682;2023-09-08T14:01:32;99925.66;;;36.77;39.36
70930;BME280;58588;48.102;19.682;2023-09-08T14:04:34;99923.03;;;37.57;38.71
70930;BME280;58588;48.102;19.682;2023-09-08T14:07:37;99920.72;;;36.49;37.88
70930;BME280;58588;48.102;19.682;2023-09-08T14:10:39;99915.41;;;37.58;37.49
70930;BME280;58588;48.102;19.682;2023-09-08T14:13:41;99914.16;;;39.22;34.89
70930;BME280;58588;48.102;19.682;2023-09-08T14:16:43;99910.66;;;39.64;33.56
70930;BME280;58588;48.102;19.682;2023-09-08T14:19:45;99914.75;;;40.05;33.18
70930;BME280;58588;48.102;19.682;2023-09-08T14:22:48;99910.72;;;39.86;36.13
70930;BME280;58588;48.102;19.682;2023-09-08T14:25:50;99901.56;;;40.35;31.46
70930;BME280;58588;48.102;19.682;2023-09-08T14:28:52;99906.50;;;40.61;33.96
70930;BME280;58588;48.102;19.682;2023-09-08T14:31:54;99903.91;;;38.50;32.87
70930;BME280;58588;48.102;19.682;2023-09-08T14:34:56;99910.50;;;37.30;34.05
70930;BME280;58588;48.102;19.682;2023-09-08T14:37:59;99900.94;;;36.58;37.17
70930;BME280;58588;48.102;19.682;2023-09-08T14:41:02;99895.88;;;36.39;37.53
70930;BME280;58588;48.102;19.682;2023-09-08T14:44:14;99902.59;;;36.71;39.22
70930;BME280;58588;48.102;19.682;2023-09-08T14:47:28;99893.38;;;36.95;36.65
70930;BME280;58588;48.102;19.682;2023-09-08T14:50:31;99888.94;;;36.24;36.93
70930;BME280;58588;48.102;19.682;2023-09-08T14:53:35;99888.78;;;35.75;38.83
70930;BME280;58588;48.102;19.682;2023-09-08T14:56:37;99893.00;;;35.19;40.53
70930;BME280;58588;48.102;19.682;2023-09-08T14:59:40;99887.56;;;34.63;41.75
70930;BME280;58588;48.102;19.682;2023-09-08T15:02:41;99892.78;;;34.18;44.42
70930;BME280;58588;48.102;19.682;2023-09-08T15:05:44;99889.72;;;34.57;40.09
70930;BME280;58588;48.102;19.682;2023-09-08T15:08:47;99891.38;;;34.88;41.42
70930;BME280;58588;48.102;19.682;2023-09-08T15:11:49;99882.31;;;37.14;38.07
70930;BME280;58588;48.102;19.682;2023-09-08T15:14:51;99885.84;;;38.51;38.59
70930;BME280;58588;48.102;19.682;2023-09-08T15:17:53;99893.16;;;39.19;34.83
70930;BME280;58588;48.102;19.682;2023-09-08T15:20:56;99888.94;;;40.75;32.27
70930;BME280;58588;48.102;19.682;2023-09-08T15:23:59;99889.91;;;41.69;30.92
70930;BME280;58588;48.102;19.682;2023-09-08T15:27:02;99883.47;;;40.86;34.02
70930;BME280;58588;48.102;19.682;2023-09-08T15:30:05;99882.25;;;40.87;33.32
70930;BME280;58588;48.102;19.682;2023-09-08T15:33:07;99884.09;;;41.29;30.77
70930;BME280;58588;48.102;19.682;2023-09-08T15:36:09;99891.50;;;42.38;31.80
70930;BME280;58588;48.102;19.682;2023-09-08T15:39:13;99886.00;;;40.45;30.44
70930;BME280;58588;48.102;19.682;2023-09-08T15:42:14;99887.75;;;39.30;31.82
70930;BME280;58588;48.102;19.682;2023-09-08T15:45:16;99874.88;;;40.10;31.48